Time;durP1;ratioP1;P1;durP2;ratioP2;P2;SDS_P1;SDS_P2;PMS_P1;PMS_P2;Temp;Humidity;BMP_temperature;BMP_pressure;BME280_temperature;BME280_humidity;BME280_pressure;Samples;Min_cycle;Max_cycle;Signal;HPM_P1;HPM_P2
2022/07/14 00:02:09;;;;;;;6.32;4.32;;;21.60;99.90;;;;;;5062581;28;20220;-85
2022/07/14 00:04:59;;;;;;;4.38;3.88;;;21.60;99.90;;;;;;5062782;28;20217;-85
2022/07/14 00:07:48;;;;;;;9.07;4.80;;;21.60;99.90;;;;;;5043157;28;20221;-85
2022/07/14 00:10:37;;;;;;;5.60;4.25;;;21.60;99.90;;;;;;5064546;28;20229;-83
2022/07/14 00:13:26;;;;;;;5.97;5.07;;;21.60;99.90;;;;;;5059301;28;20591;-85
2022/07/14 00:16:15;;;;;;;5.93;4.47;;;21.50;99.90;;;;;;5049662;28;20220;-84
2022/07/14 00:19:03;;;;;;;4.60;4.07;;;21.50;99.90;;;;;;5067071;28;20255;-84
2022/07/14 00:21:54;;;;;;;7.57;4.53;;;21.50;99.90;;;;;;5063265;28;20729;-84
2022/07/14 00:24:43;;;;;;;6.18;4.60;;;21.50;99.90;;;;;;5065337;28;21284;-85
2022/07/14 00:27:31;;;;;;;6.53;4.40;;;21.40;99.90;;;;;;5035634;28;20228;-85
2022/07/14 00:30:21;;;;;;;6.72;4.38;;;21.30;99.90;;;;;;5033686;28;20229;-85
2022/07/14 00:33:09;;;;;;;5.50;4.43;;;21.20;99.90;;;;;;5048883;28;20311;-84
2022/07/14 00:35:59;;;;;;;8.93;4.38;;;21.10;99.90;;;;;;5062956;28;20224;-85
2022/07/14 00:38:49;;;;;;;6.40;4.80;;;21.10;99.90;;;;;;5030384;28;20229;-82
2022/07/14 00:41:38;;;;;;;9.32;4.78;;;21.00;99.90;;;;;;5049865;28;20221;-79
2022/07/14 00:44:27;;;;;;;7.85;4.78;;;20.90;99.90;;;;;;5056120;28;20216;-82
2022/07/14 00:47:15;;;;;;;7.82;4.70;;;20.90;99.90;;;;;;5057720;28;20232;-83
2022/07/14 00:50:06;;;;;;;6.63;4.95;;;20.90;99.90;;;;;;5060814;28;20236;-84
2022/07/14 00:53:07;;;;;;;5.53;4.57;;;20.80;99.90;;;;;;5077539;28;20242;-82
2022/07/14 00:55:57;;;;;;;8.10;4.82;;;20.80;99.90;;;;;;5071885;28;20277;-82
2022/07/14 00:58:48;;;;;;;5.32;4.65;;;20.80;99.90;;;;;;5065439;28;20746;-84
2022/07/14 01:01:36;;;;;;;5.28;4.75;;;20.80;99.90;;;;;;5063842;28;20319;-85
2022/07/14 01:04:25;;;;;;;10.73;4.93;;;20.70;99.90;;;;;;5053119;28;20314;-85
2022/07/14 01:07:16;;;;;;;6.43;4.57;;;20.60;99.90;;;;;;5078182;28;20220;-86
2022/07/14 01:10:06;;;;;;;6.28;4.60;;;20.60;99.90;;;;;;5070890;28;20278;-87
2022/07/14 01:13:00;;;;;;;6.30;5.07;;;20.60;99.90;;;;;;5070022;28;20297;-84
2022/07/14 01:15:49;;;;;;;5.18;4.65;;;20.50;99.90;;;;;;5077663;28;20239;-84
2022/07/14 01:18:39;;;;;;;6.68;4.72;;;20.40;99.90;;;;;;5055987;28;20663;-85
2022/07/14 01:21:29;;;;;;;7.00;5.03;;;20.40;99.90;;;;;;5069900;28;20273;-85
2022/07/14 01:24:18;;;;;;;6.82;5.22;;;20.40;99.90;;;;;;5076255;28;20224;-86
2022/07/14 01:27:09;;;;;;;7.93;5.40;;;20.40;99.90;;;;;;5052869;28;20235;-79
2022/07/14 01:29:57;;;;;;;6.80;5.10;;;20.30;99.90;;;;;;5059229;28;20220;-80
2022/07/14 01:32:46;;;;;;;10.57;5.25;;;20.30;99.90;;;;;;5059884;28;20220;-80
2022/07/14 01:35:35;;;;;;;9.25;5.45;;;20.30;99.90;;;;;;5061944;28;20322;-80
2022/07/14 01:38:25;;;;;;;7.78;5.40;;;20.40;99.90;;;;;;5059781;28;20215;-81
2022/07/14 01:41:13;;;;;;;7.07;5.57;;;20.30;99.90;;;;;;5065702;28;21017;-79
2022/07/14 01:44:02;;;;;;;8.65;5.60;;;20.30;99.90;;;;;;5043516;28;20228;-86
2022/07/14 01:46:51;;;;;;;6.53;5.22;;;20.30;99.90;;;;;;5062615;28;20221;-86
2022/07/14 01:49:42;;;;;;;7.40;5.65;;;20.20;99.90;;;;;;5050715;28;20341;-86
2022/07/14 01:52:31;;;;;;;7.13;5.63;;;20.30;99.90;;;;;;5059903;28;20227;-86
2022/07/14 01:55:22;;;;;;;7.78;5.55;;;20.30;99.90;;;;;;5057451;28;20225;-87
2022/07/14 01:58:11;;;;;;;8.32;5.63;;;20.30;99.90;;;;;;5075024;28;20235;-85
2022/07/14 02:04:08;;;;;;;6.45;5.43;;;20.10;99.90;;;;;;5071764;28;20732;-86
2022/07/14 02:06:57;;;;;;;5.95;5.15;;;20.10;99.90;;;;;;5057497;28;20232;-84
2022/07/14 02:13:15;;;;;;;6.88;5.30;;;20.00;99.90;;;;;;5070786;28;20231;-84
2022/07/14 02:16:04;;;;;;;9.63;5.50;;;20.10;99.90;;;;;;5085684;28;20227;-84
2022/07/14 02:18:53;;;;;;;6.18;5.18;;;20.10;99.90;;;;;;5067352;28;20223;-84
2022/07/14 02:21:42;;;;;;;7.35;5.18;;;20.10;99.90;;;;;;5057554;28;20220;-78
2022/07/14 02:24:31;;;;;;;9.07;5.30;;;20.00;99.90;;;;;;5047817;28;20346;-78
2022/07/14 02:27:20;;;;;;;5.68;4.72;;;20.00;99.90;;;;;;5050243;28;20228;-80
2022/07/14 02:30:11;;;;;;;6.57;5.25;;;20.00;99.90;;;;;;5049615;28;20237;-79
2022/07/14 02:33:00;;;;;;;8.40;5.60;;;20.00;99.90;;;;;;5079728;28;20220;-79
2022/07/14 02:35:49;;;;;;;6.75;4.93;;;20.10;99.90;;;;;;5054326;28;20231;-79
2022/07/14 02:38:37;;;;;;;8.13;5.07;;;20.00;99.90;;;;;;5062893;28;20216;-78
2022/07/14 02:41:26;;;;;;;7.53;5.57;;;20.00;99.90;;;;;;5094034;28;20226;-79
2022/07/14 02:44:15;;;;;;;9.52;5.07;;;20.10;99.90;;;;;;5075355;28;20212;-78
2022/07/14 02:47:06;;;;;;;6.72;5.43;;;20.00;99.90;;;;;;5094654;28;20247;-79
2022/07/14 02:49:55;;;;;;;6.03;5.00;;;20.00;99.90;;;;;;5065156;28;20227;-79
2022/07/14 02:52:43;;;;;;;5.47;4.90;;;19.90;99.90;;;;;;5064742;28;20228;-79
2022/07/14 02:55:35;;;;;;;6.20;4.97;;;20.00;99.90;;;;;;5074956;28;20205;-84
2022/07/14 02:58:25;;;;;;;7.38;4.80;;;20.10;99.90;;;;;;5081474;28;20220;-86
2022/07/14 03:01:17;;;;;;;9.38;5.10;;;20.10;99.90;;;;;;5094476;28;20234;-84
2022/07/14 03:04:07;;;;;;;6.32;5.03;;;20.20;99.90;;;;;;5105982;28;20254;-86
2022/07/14 03:06:56;;;;;;;6.13;4.93;;;20.20;99.90;;;;;;5065270;28;20265;-78
2022/07/14 03:09:49;;;;;;;7.90;4.70;;;20.10;99.90;;;;;;5053247;28;20215;-78
2022/07/14 03:12:39;;;;;;;6.68;5.18;;;20.20;99.90;;;;;;5053085;28;20212;-79
2022/07/14 03:15:27;;;;;;;7.00;4.78;;;20.20;99.90;;;;;;5054109;28;20699;-79
2022/07/14 03:18:16;;;;;;;8.95;5.00;;;20.20;99.90;;;;;;5063807;28;20229;-79
2022/07/14 03:21:09;;;;;;;6.28;4.90;;;20.10;99.90;;;;;;5049448;28;20220;-79
2022/07/14 03:24:00;;;;;;;12.32;4.75;;;20.10;99.90;;;;;;5061505;28;20216;-86
2022/07/14 03:26:51;;;;;;;5.80;4.80;;;20.20;99.90;;;;;;5057277;28;20216;-79
2022/07/14 03:29:41;;;;;;;6.72;4.93;;;20.20;99.90;;;;;;5049517;28;20228;-79
2022/07/14 03:32:29;;;;;;;7.90;4.60;;;20.30;99.90;;;;;;5029483;28;20250;-79
2022/07/14 03:35:19;;;;;;;7.20;4.95;;;20.30;99.90;;;;;;5050496;28;20224;-79
2022/07/14 03:38:09;;;;;;;8.98;4.75;;;20.40;99.90;;;;;;5048684;28;20312;-80
2022/07/14 03:41:20;;;;;;;8.07;5.25;;;20.30;99.90;;;;;;5071865;28;20224;-79
2022/07/14 03:44:09;;;;;;;4.90;4.40;;;20.40;99.90;;;;;;5051020;28;20227;-80
2022/07/14 03:46:58;;;;;;;10.32;4.90;;;20.30;99.90;;;;;;5046739;28;20278;-83
2022/07/14 03:49:47;;;;;;;6.85;5.05;;;20.30;99.90;;;;;;5043305;28;20246;-83
2022/07/14 03:52:40;;;;;;;6.05;4.40;;;20.30;99.90;;;;;;5061963;28;20224;-83
2022/07/14 03:55:32;;;;;;;6.30;5.00;;;20.30;99.90;;;;;;5051598;28;20314;-83
2022/07/14 03:58:21;;;;;;;7.15;5.95;;;20.40;99.90;;;;;;5039356;28;20363;-82
2022/07/14 04:01:10;;;;;;;7.40;4.72;;;20.40;99.90;;;;;;5062403;28;20595;-82
2022/07/14 04:04:01;;;;;;;8.60;5.43;;;20.50;99.90;;;;;;5049820;28;20337;-85
2022/07/14 04:06:50;;;;;;;8.95;5.22;;;20.50;99.90;;;;;;5065772;28;20349;-83
2022/07/14 04:09:39;;;;;;;9.88;5.15;;;20.50;99.90;;;;;;5051252;28;20678;-81
2022/07/14 04:12:30;;;;;;;7.63;4.70;;;20.50;99.90;;;;;;5060506;28;20224;-82
2022/07/14 04:15:26;;;;;;;6.68;5.22;;;20.70;99.90;;;;;;5059505;28;20398;-82
2022/07/14 04:18:14;;;;;;;8.02;5.38;;;20.60;99.90;;;;;;5056477;28;20326;-82
2022/07/14 04:21:05;;;;;;;7.72;5.75;;;20.60;99.90;;;;;;5067778;28;20467;-84
2022/07/14 04:23:53;;;;;;;9.82;5.65;;;20.60;99.90;;;;;;5067927;28;20207;-82
2022/07/14 04:26:42;;;;;;;7.13;5.50;;;20.70;99.90;;;;;;5062008;28;20212;-82
2022/07/14 04:29:32;;;;;;;8.02;4.88;;;20.80;99.90;;;;;;5091442;28;20283;-83
2022/07/14 04:32:21;;;;;;;8.15;5.15;;;20.80;99.90;;;;;;5070916;28;20223;-83
2022/07/14 04:35:11;;;;;;;5.68;5.13;;;20.90;99.90;;;;;;5054750;28;20583;-81
2022/07/14 04:38:00;;;;;;;7.10;5.03;;;21.00;99.90;;;;;;5052154;28;20224;-82
2022/07/14 04:40:54;;;;;;;6.13;4.75;;;21.20;99.90;;;;;;5056848;28;20223;-82
2022/07/14 04:43:45;;;;;;;11.38;5.43;;;21.20;99.90;;;;;;5077993;28;20579;-82
2022/07/14 04:46:35;;;;;;;6.10;4.68;;;21.30;99.90;;;;;;5078494;28;20301;-83
2022/07/14 04:52:33;;;;;;;7.20;4.97;;;21.40;99.90;;;;;;5067650;28;20719;-83
2022/07/14 04:55:40;;;;;;;11.88;5.15;;;21.60;99.90;;;;;;5047864;28;20220;-82
2022/07/14 04:58:41;;;;;;;17.13;5.25;;;21.60;99.90;;;;;;5059405;28;20777;-82
2022/07/14 05:01:30;;;;;;;8.40;4.68;;;21.70;99.90;;;;;;5046029;28;20674;-82
2022/07/14 05:04:20;;;;;;;9.15;4.57;;;21.80;99.90;;;;;;5051348;28;20944;-82
2022/07/14 05:07:09;;;;;;;10.10;4.50;;;21.80;99.90;;;;;;5063643;28;20314;-82
2022/07/14 05:10:04;;;;;;;7.97;4.28;;;21.90;99.90;;;;;;5051425;28;20303;-85
2022/07/14 05:12:53;;;;;;;29.45;5.15;;;22.00;99.90;;;;;;5076362;28;20266;-86
2022/07/14 05:15:42;;;;;;;20.45;4.38;;;22.00;99.90;;;;;;5050578;28;20220;-85
2022/07/14 05:18:32;;;;;;;5.30;4.10;;;22.10;99.90;;;;;;5063042;28;20225;-84
2022/07/14 05:21:23;;;;;;;7.93;3.78;;;22.20;99.90;;;;;;5070082;28;20216;-82
2022/07/14 05:24:13;;;;;;;7.03;3.90;;;22.30;99.90;;;;;;5062001;28;20224;-86
2022/07/14 05:27:02;;;;;;;6.70;3.90;;;22.30;99.90;;;;;;5033484;28;20615;-81
2022/07/14 05:29:54;;;;;;;7.10;3.72;;;22.30;99.90;;;;;;5077890;28;20223;-79
2022/07/14 05:32:46;;;;;;;4.65;3.50;;;22.30;99.90;;;;;;5050013;28;20235;-82
2022/07/14 05:35:35;;;;;;;10.93;3.72;;;22.40;99.90;;;;;;5057255;28;20216;-82
2022/07/14 05:38:25;;;;;;;5.18;3.30;;;22.50;99.90;;;;;;5067139;28;20220;-82
2022/07/14 05:41:14;;;;;;;5.85;4.18;;;22.70;99.90;;;;;;5050230;28;20757;-80
2022/07/14 05:44:04;;;;;;;4.57;3.60;;;22.90;99.90;;;;;;5050874;28;20678;-81
2022/07/14 05:46:53;;;;;;;4.30;3.72;;;23.60;99.90;;;;;;5066254;28;20930;-82
2022/07/14 05:49:42;;;;;;;5.13;4.18;;;23.90;99.90;;;;;;5070899;28;20249;-80
2022/07/14 05:52:32;;;;;;;5.32;3.78;;;23.70;99.90;;;;;;5057575;28;20236;-81
2022/07/14 05:55:22;;;;;;;9.48;4.70;;;23.50;99.90;;;;;;5067593;28;20596;-78
2022/07/14 05:58:14;;;;;;;8.13;3.83;;;23.40;99.90;;;;;;5062136;28;20223;-78
2022/07/14 06:01:04;;;;;;;7.03;3.70;;;23.20;99.90;;;;;;5065167;28;20265;-80
2022/07/14 06:03:56;;;;;;;3.38;3.08;;;23.20;99.90;;;;;;5049232;28;20216;-78
2022/07/14 06:06:47;;;;;;;4.88;3.10;;;23.20;99.90;;;;;;5047546;28;20233;-79
2022/07/14 06:09:36;;;;;;;7.05;3.63;;;23.20;99.90;;;;;;5035308;28;20292;-79
2022/07/14 06:12:27;;;;;;;3.38;2.88;;;23.30;99.90;;;;;;5066498;28;20231;-79
2022/07/14 06:15:16;;;;;;;2.90;2.50;;;23.30;99.90;;;;;;5049630;28;20225;-76
2022/07/14 06:18:05;;;;;;;4.43;3.15;;;23.30;99.90;;;;;;5075997;28;20232;-79
2022/07/14 06:20:55;;;;;;;10.18;3.28;;;23.20;99.90;;;;;;5052451;28;20227;-79
2022/07/14 06:23:45;;;;;;;6.38;2.65;;;23.40;99.90;;;;;;5063029;28;20818;-85
2022/07/14 06:26:35;;;;;;;4.95;2.80;;;23.30;99.90;;;;;;5076659;28;20315;-78
2022/07/14 06:29:25;;;;;;;3.45;2.63;;;23.40;99.90;;;;;;5040561;28;20224;-77
2022/07/14 06:32:14;;;;;;;4.90;2.60;;;23.40;99.90;;;;;;5063629;28;20330;-76
2022/07/14 06:35:04;;;;;;;2.88;2.47;;;23.50;99.90;;;;;;5087570;28;20226;-78
2022/07/14 06:37:53;;;;;;;2.80;2.45;;;23.50;99.90;;;;;;5090219;28;20774;-76
2022/07/14 06:40:42;;;;;;;4.18;2.67;;;23.60;99.90;;;;;;5045999;28;20230;-77
2022/07/14 06:43:30;;;;;;;2.95;2.40;;;23.60;99.90;;;;;;5050034;28;20231;-78
2022/07/14 06:46:22;;;;;;;3.65;2.70;;;23.60;99.90;;;;;;5051788;28;20243;-77
2022/07/14 06:49:11;;;;;;;3.75;2.70;;;23.70;99.90;;;;;;5063210;28;20251;-76
2022/07/14 06:51:59;;;;;;;4.07;2.72;;;23.70;99.90;;;;;;5061844;28;20242;-77
2022/07/14 06:54:50;;;;;;;5.65;2.60;;;23.70;99.90;;;;;;5063454;28;20273;-77
2022/07/14 06:57:39;;;;;;;5.25;3.17;;;23.90;99.90;;;;;;5066149;28;20227;-77
2022/07/14 07:00:27;;;;;;;4.90;2.88;;;24.10;99.90;;;;;;5043767;28;20217;-77
2022/07/14 07:03:17;;;;;;;4.68;2.83;;;24.10;99.90;;;;;;5055096;28;20737;-78
2022/07/14 07:09:13;;;;;;;5.07;2.67;;;24.20;99.90;;;;;;5061942;28;20220;-77
2022/07/14 07:12:01;;;;;;;7.07;2.88;;;24.20;99.90;;;;;;5057430;28;20236;-77
2022/07/14 07:14:50;;;;;;;4.85;2.45;;;24.50;99.90;;;;;;5059750;28;20546;-77
2022/07/14 07:17:39;;;;;;;6.15;3.13;;;24.70;99.90;;;;;;5061561;28;20212;-78
2022/07/14 07:20:31;;;;;;;3.75;2.80;;;24.60;99.90;;;;;;5065432;28;20900;-84
2022/07/14 07:23:20;;;;;;;2.53;2.20;;;24.70;99.90;;;;;;5079274;28;20228;-86
2022/07/14 07:26:09;;;;;;;4.82;2.70;;;24.80;99.90;;;;;;5072895;28;20299;-86
2022/07/14 07:29:04;;;;;;;4.43;2.20;;;25.00;99.90;;;;;;5060445;28;20295;-86
2022/07/14 07:31:53;;;;;;;5.43;2.40;;;25.30;99.90;;;;;;5055194;28;20288;-86
2022/07/14 07:34:43;;;;;;;2.42;2.22;;;25.70;99.90;;;;;;5061487;28;20314;-84
2022/07/14 07:37:34;;;;;;;4.07;2.30;;;25.70;99.90;;;;;;5049986;28;20255;-76
2022/07/14 07:40:23;;;;;;;4.35;2.33;;;25.80;99.90;;;;;;5050497;28;21286;-76
2022/07/14 07:43:12;;;;;;;3.92;2.45;;;26.20;99.90;;;;;;5077065;28;20231;-76
2022/07/14 07:46:02;;;;;;;3.72;2.03;;;26.30;99.90;;;;;;5074726;28;20225;-76
2022/07/14 07:48:51;;;;;;;3.60;2.38;;;26.80;99.90;;;;;;5075607;28;20220;-77
2022/07/14 07:51:40;;;;;;;3.65;2.53;;;27.10;99.90;;;;;;5061537;28;20227;-78
2022/07/14 07:54:30;;;;;;;3.22;2.15;;;27.60;97.90;;;;;;5064286;28;20227;-78
2022/07/14 07:57:39;;;;;;;3.30;2.30;;;27.40;99.90;;;;;;5064704;28;20613;-77
2022/07/14 08:00:28;;;;;;;16.08;3.05;;;27.80;99.10;;;;;;5062845;28;20220;-77
2022/07/14 08:03:16;;;;;;;2.45;1.92;;;28.00;95.10;;;;;;5062813;28;20797;-77
2022/07/14 08:06:05;;;;;;;8.40;2.00;;;28.30;94.30;;;;;;5058522;28;20228;-77
2022/07/14 08:09:14;;;;;;;1.77;1.67;;;28.20;91.90;;;;;;5066443;28;20224;-86
2022/07/14 08:12:04;;;;;;;3.47;1.63;;;28.30;91.20;;;;;;5057133;28;20234;-85
2022/07/14 08:14:53;;;;;;;6.30;2.13;;;28.60;92.70;;;;;;5070037;28;20222;-84
2022/07/14 08:17:42;;;;;;;2.75;2.00;;;28.80;90.30;;;;;;5054974;28;20219;-85
2022/07/14 08:20:35;;;;;;;6.03;2.28;;;28.70;89.00;;;;;;5067291;28;20373;-87
2022/07/14 08:23:24;;;;;;;4.07;1.90;;;29.30;87.30;;;;;;5080463;28;20230;-77
2022/07/14 08:26:12;;;;;;;4.55;2.20;;;29.40;89.10;;;;;;5063432;28;20232;-77
2022/07/14 08:29:02;;;;;;;4.97;2.30;;;29.80;87.10;;;;;;5064479;28;20414;-77
2022/07/14 08:31:51;;;;;;;2.45;2.25;;;30.10;87.60;;;;;;5048894;28;20227;-78
2022/07/14 08:34:40;;;;;;;6.68;2.40;;;29.70;83.80;;;;;;5047883;28;20583;-76
2022/07/14 08:37:29;;;;;;;3.65;2.00;;;29.70;84.30;;;;;;5066682;28;20726;-77
2022/07/14 08:40:25;;;;;;;4.72;2.20;;;30.00;86.30;;;;;;5057441;28;20220;-82
2022/07/14 08:43:15;;;;;;;8.65;2.13;;;29.90;83.60;;;;;;5061995;28;20591;-77
2022/07/14 08:46:06;;;;;;;5.75;2.47;;;30.30;81.60;;;;;;5057780;28;20230;-78
2022/07/14 08:48:55;;;;;;;6.25;2.15;;;29.90;79.10;;;;;;5059910;28;20242;-83
2022/07/14 08:51:45;;;;;;;3.33;1.90;;;30.00;77.50;;;;;;5062171;28;20235;-82
2022/07/14 08:54:35;;;;;;;2.50;1.92;;;30.70;75.10;;;;;;5081181;28;20231;-77
2022/07/14 08:57:24;;;;;;;6.13;2.10;;;31.20;72.40;;;;;;5071975;28;20236;-77
2022/07/14 09:00:15;;;;;;;3.88;1.60;;;31.70;70.40;;;;;;5055277;28;20228;-77
2022/07/14 09:03:05;;;;;;;2.33;1.85;;;32.30;70.60;;;;;;5066619;28;20769;-77
2022/07/14 09:06:50;;;;;;;3.33;1.92;;;32.10;65.60;;;;;;5070503;28;20237;-77
2022/07/14 09:09:39;;;;;;;3.97;2.50;;;32.70;64.60;;;;;;5061418;28;20235;-78
2022/07/14 09:12:30;;;;;;;6.18;2.63;;;32.90;61.20;;;;;;5077117;28;20215;-78
2022/07/14 09:18:32;;;;;;;2.63;1.67;;;33.60;61.40;;;;;;5061125;28;20291;-77
2022/07/14 09:21:21;;;;;;;1.90;1.70;;;34.50;58.30;;;;;;5057051;28;20218;-78
2022/07/14 09:24:11;;;;;;;2.72;1.70;;;35.10;56.80;;;;;;5067269;28;20230;-77
2022/07/14 09:27:00;;;;;;;2.88;1.67;;;35.60;54.80;;;;;;5048940;28;20219;-78
2022/07/14 09:29:55;;;;;;;2.15;1.80;;;36.20;53.50;;;;;;5059412;28;20241;-78
2022/07/14 09:32:45;;;;;;;4.85;1.58;;;36.60;50.40;;;;;;5066470;28;20227;-78
2022/07/14 09:35:42;;;;;;;3.17;1.70;;;36.90;49.50;;;;;;5064462;28;20215;-78
2022/07/14 09:38:31;;;;;;;3.83;1.40;;;36.70;49.10;;;;;;5052663;28;20239;-77
2022/07/14 09:41:20;;;;;;;3.95;1.60;;;36.50;46.90;;;;;;5056924;28;20215;-78
2022/07/14 09:44:11;;;;;;;2.92;1.67;;;36.60;45.60;;;;;;5064710;28;20633;-78
2022/07/14 09:47:00;;;;;;;3.47;1.60;;;36.80;46.20;;;;;;5068016;28;20542;-80
2022/07/14 09:49:49;;;;;;;2.92;1.30;;;37.40;44.70;;;;;;5064779;28;20226;-83
2022/07/14 09:52:59;;;;;;;2.58;1.63;;;37.90;44.80;;;;;;5059234;28;20280;-77
2022/07/14 09:55:53;;;;;;;2.58;1.63;;;38.60;44.90;;;;;;5041765;28;20610;-83
2022/07/14 09:58:51;;;;;;;2.20;1.15;;;38.40;42.50;;;;;;5055482;28;20298;-78
2022/07/14 10:01:40;;;;;;;3.10;1.58;;;38.70;41.30;;;;;;5060024;28;20309;-83
2022/07/14 10:04:28;;;;;;;2.80;1.50;;;40.10;41.70;;;;;;5083397;28;20330;-78
2022/07/14 10:07:19;;;;;;;3.08;1.60;;;41.50;41.40;;;;;;5091241;28;20227;-79
2022/07/14 10:10:12;;;;;;;3.53;1.70;;;41.50;41.10;;;;;;5079198;28;20223;-79
2022/07/14 10:13:02;;;;;;;5.10;1.30;;;42.00;39.90;;;;;;5056865;28;20227;-79
2022/07/14 10:16:00;;;;;;;4.45;1.38;;;42.60;37.50;;;;;;5074182;28;20314;-78
2022/07/14 10:18:49;;;;;;;3.63;1.20;;;42.90;37.80;;;;;;5075329;28;20250;-77
2022/07/14 10:21:38;;;;;;;2.58;1.50;;;43.20;38.50;;;;;;5083161;28;20216;-78
2022/07/14 10:24:29;;;;;;;2.75;1.50;;;42.50;37.60;;;;;;5075076;28;20219;-79
2022/07/14 10:27:19;;;;;;;3.08;1.50;;;42.10;39.20;;;;;;5088774;28;20204;-77
2022/07/14 10:30:09;;;;;;;2.95;1.58;;;43.00;37.90;;;;;;5071043;28;20238;-78
2022/07/14 10:33:07;;;;;;;3.95;1.55;;;43.40;39.00;;;;;;5068973;28;20215;-77
2022/07/14 10:36:07;;;;;;;4.32;1.73;;;43.30;37.00;;;;;;5075234;28;25896;-77
2022/07/14 10:39:11;;;;;;;2.00;1.50;;;43.20;37.60;;;;;;5065101;28;20277;-77
2022/07/14 10:42:12;;;;;;;2.35;1.40;;;42.80;36.80;;;;;;5065448;28;20692;-77
2022/07/14 10:45:04;;;;;;;4.50;1.35;;;41.30;38.40;;;;;;5064984;28;20226;-77
2022/07/14 10:47:54;;;;;;;2.03;1.40;;;40.50;40.10;;;;;;5060332;28;20753;-77
2022/07/14 10:50:43;;;;;;;2.45;1.60;;;41.40;38.30;;;;;;5061647;28;21069;-78
2022/07/14 10:53:32;;;;;;;3.42;1.48;;;42.00;37.50;;;;;;5046922;28;20224;-87
2022/07/14 10:56:26;;;;;;;2.45;1.42;;;43.30;38.20;;;;;;5045318;28;20247;-77
2022/07/14 10:59:33;;;;;;;3.22;1.48;;;44.20;36.30;;;;;;5042215;28;20212;-78
2022/07/14 11:02:38;;;;;;;2.55;1.33;;;43.40;35.50;;;;;;5046064;28;20301;-85
2022/07/14 11:05:27;;;;;;;5.30;1.50;;;44.00;36.00;;;;;;5047904;28;20281;-85
2022/07/14 11:08:16;;;;;;;4.43;1.55;;;44.80;34.40;;;;;;5026202;28;20220;-78
2022/07/14 11:11:08;;;;;;;1.63;1.17;;;45.00;34.50;;;;;;5041449;28;20219;-79
2022/07/14 11:14:12;;;;;;;2.35;1.33;;;45.00;34.10;;;;;;5039161;28;20228;-78
2022/07/14 11:17:01;;;;;;;2.45;1.42;;;45.50;34.30;;;;;;5040122;28;20299;-78
2022/07/14 11:19:53;;;;;;;3.15;1.40;;;45.40;32.80;;;;;;5042884;28;20235;-86
2022/07/14 11:22:42;;;;;;;2.53;1.40;;;45.70;31.90;;;;;;5058712;28;20300;-78
2022/07/14 11:25:31;;;;;;;4.70;1.80;;;45.30;30.80;;;;;;5048421;28;20216;-86
2022/07/14 11:28:35;;;;;;;1.83;1.58;;;45.40;32.50;;;;;;5052140;28;20224;-77
2022/07/14 11:31:24;;;;;;;6.50;1.70;;;45.70;30.30;;;;;;5037844;28;20224;-76
2022/07/14 11:37:33;;;;;;;1.92;1.27;;;45.90;31.40;;;;;;5044620;28;20227;-84
2022/07/14 11:40:47;;;;;;;2.97;1.33;;;45.80;31.00;;;;;;5028426;28;20217;-85
2022/07/14 11:43:44;;;;;;;4.82;1.52;;;45.60;31.40;;;;;;5046779;28;20569;-85
2022/07/14 11:46:33;;;;;;;5.93;1.50;;;44.70;30.00;;;;;;5039170;28;20299;-79
2022/07/14 11:49:22;;;;;;;1.63;1.50;;;45.20;32.10;;;;;;5043735;28;20231;-78
2022/07/14 11:52:11;;;;;;;2.75;1.60;;;45.50;31.70;;;;;;5032792;28;20228;-78
2022/07/14 11:55:04;;;;;;;2.42;1.48;;;45.40;31.20;;;;;;5057645;28;20219;-78
2022/07/14 11:57:53;;;;;;;3.92;1.50;;;45.10;31.50;;;;;;5058947;28;20226;-76
2022/07/14 12:00:54;;;;;;;7.00;1.50;;;45.20;31.80;;;;;;5048500;28;20750;-79
2022/07/14 12:03:43;;;;;;;4.78;1.42;;;45.10;32.20;;;;;;5062974;28;20219;-78
2022/07/14 12:06:32;;;;;;;3.50;1.40;;;45.00;32.30;;;;;;5046058;28;20325;-78
2022/07/14 12:09:29;;;;;;;3.30;1.55;;;44.70;33.30;;;;;;5065657;28;20212;-78
2022/07/14 12:12:27;;;;;;;2.47;1.35;;;45.10;31.90;;;;;;5050301;28;20226;-86
2022/07/14 12:15:23;;;;;;;2.65;1.30;;;44.80;31.90;;;;;;5065801;28;20334;-87
2022/07/14 12:18:12;;;;;;;1.73;1.10;;;45.20;31.00;;;;;;5074420;28;20228;-78
2022/07/14 12:21:01;;;;;;;5.45;1.85;;;44.80;30.40;;;;;;5061076;28;20253;-86
2022/07/14 12:23:55;;;;;;;2.13;1.20;;;44.90;32.30;;;;;;5086261;28;20243;-89
2022/07/14 12:26:44;;;;;;;1.83;1.33;;;45.10;31.20;;;;;;5067529;28;20234;-77
2022/07/14 12:29:46;;;;;;;2.53;1.30;;;44.40;30.60;;;;;;5055351;28;20211;-76
2022/07/14 12:32:37;;;;;;;7.88;1.60;;;43.80;30.80;;;;;;5061219;28;20277;-85
2022/07/14 12:35:26;;;;;;;2.25;1.20;;;43.60;30.60;;;;;;5048153;28;20246;-85
2022/07/14 12:38:16;;;;;;;3.15;1.35;;;43.00;30.50;;;;;;5069297;28;20223;-88
2022/07/14 12:41:08;;;;;;;2.63;1.23;;;42.90;31.50;;;;;;5049004;28;20696;-87
2022/07/14 12:43:58;;;;;;;3.22;1.23;;;43.20;31.10;;;;;;5051459;28;20624;-86
2022/07/14 12:47:06;;;;;;;3.92;1.10;;;42.50;31.10;;;;;;5050541;28;20219;-87
2022/07/14 12:49:56;;;;;;;6.40;1.42;;;42.20;31.30;;;;;;5061032;28;23455;-87
2022/07/14 12:52:53;;;;;;;7.40;1.58;;;41.90;31.50;;;;;;5031586;28;20249;-88
2022/07/14 12:55:44;;;;;;;3.92;1.40;;;39.00;33.60;;;;;;5037959;28;20243;-81
2022/07/14 12:58:35;;;;;;;3.78;1.45;;;36.70;36.60;;;;;;5043394;28;20323;-82
2022/07/14 13:01:24;;;;;;;3.97;1.30;;;35.10;37.90;;;;;;5045733;28;20231;-83
2022/07/14 13:04:27;;;;;;;3.80;1.20;;;34.10;40.50;;;;;;5058383;28;20323;-82
2022/07/14 13:07:24;;;;;;;2.80;1.35;;;33.20;41.60;;;;;;5043968;28;20228;-81
2022/07/14 13:10:14;;;;;;;3.47;1.20;;;32.50;42.70;;;;;;5046226;28;20219;-81
2022/07/14 13:13:03;;;;;;;1.95;1.17;;;32.00;43.50;;;;;;5042373;28;20265;-79
2022/07/14 13:15:52;;;;;;;3.63;1.45;;;31.50;42.70;;;;;;5032738;28;20277;-81
2022/07/14 13:19:11;;;;;;;4.22;1.60;;;31.10;44.30;;;;;;5044498;28;20438;-81
2022/07/14 13:22:04;;;;;;;4.18;1.52;;;30.90;44.40;;;;;;5037624;28;20322;-82
2022/07/14 13:24:56;;;;;;;2.17;1.27;;;30.70;44.70;;;;;;5064150;28;20220;-82
2022/07/14 13:27:45;;;;;;;4.20;1.30;;;30.40;44.50;;;;;;5041936;28;20230;-84
2022/07/14 13:30:33;;;;;;;3.33;1.50;;;30.00;45.70;;;;;;5044660;28;20235;-82
2022/07/14 13:33:22;;;;;;;2.83;1.50;;;29.90;46.30;;;;;;5062871;28;20215;-82
2022/07/14 13:36:12;;;;;;;6.10;2.05;;;29.80;47.60;;;;;;5063867;28;20220;-81
2022/07/14 13:39:03;;;;;;;4.72;1.67;;;29.50;47.20;;;;;;5036980;28;20220;-82
2022/07/14 13:41:52;;;;;;;6.72;1.70;;;29.60;48.30;;;;;;5033511;28;20216;-82
2022/07/14 13:44:40;;;;;;;4.85;1.73;;;29.40;48.50;;;;;;5046273;28;20224;-81
2022/07/14 13:47:29;;;;;;;3.40;1.30;;;29.40;49.30;;;;;;5044638;28;20224;-81
2022/07/14 13:53:24;;;;;;;2.92;1.45;;;;;;;;;;5046901;28;20227;-81
2022/07/14 13:56:14;;;;;;;4.63;1.40;;;29.10;48.80;;;;;;5049862;28;20220;-81
2022/07/14 13:59:03;;;;;;;2.08;1.30;;;28.90;49.70;;;;;;5049653;28;20216;-81
2022/07/14 14:01:52;;;;;;;3.70;1.42;;;28.90;49.70;;;;;;5066402;28;20227;-82
2022/07/14 14:04:43;;;;;;;3.55;1.30;;;28.70;49.70;;;;;;5075351;28;20228;-82
2022/07/14 14:07:36;;;;;;;7.00;1.30;;;28.60;49.40;;;;;;5075838;28;20336;-81
2022/07/14 14:10:25;;;;;;;3.03;1.17;;;28.60;49.80;;;;;;5054680;28;20226;-81
2022/07/14 14:13:24;;;;;;;4.63;1.40;;;28.50;48.60;;;;;;5055297;28;20250;-82
2022/07/14 14:16:13;;;;;;;4.50;1.48;;;28.30;48.60;;;;;;5064784;28;20228;-81
2022/07/14 14:19:03;;;;;;;5.65;1.40;;;28.30;49.90;;;;;;5072054;28;20277;-82
2022/07/14 14:21:52;;;;;;;4.57;1.95;;;28.20;50.50;;;;;;5049432;28;20771;-81
2022/07/14 14:24:40;;;;;;;3.10;1.35;;;28.20;50.60;;;;;;5079798;28;20233;-82
2022/07/14 14:27:29;;;;;;;5.45;1.20;;;28.10;50.80;;;;;;5063738;28;20220;-82
2022/07/14 14:30:20;;;;;;;2.50;1.35;;;28.10;50.70;;;;;;5051848;28;20220;-82
2022/07/14 14:33:09;;;;;;;2.60;1.20;;;28.00;50.90;;;;;;5083012;28;20224;-82
2022/07/14 14:35:58;;;;;;;5.63;1.70;;;27.90;51.50;;;;;;5065764;28;20216;-81
2022/07/14 14:38:46;;;;;;;2.85;1.40;;;27.90;52.60;;;;;;5068196;28;20224;-82
2022/07/14 14:41:35;;;;;;;5.43;1.27;;;27.70;51.60;;;;;;5053991;28;20212;-81
2022/07/14 14:44:24;;;;;;;3.33;1.50;;;27.60;52.30;;;;;;5051197;28;20480;-80
2022/07/14 14:47:15;;;;;;;4.25;1.73;;;27.70;52.30;;;;;;5081800;28;20228;-81
2022/07/14 14:50:04;;;;;;;2.80;1.30;;;27.60;52.00;;;;;;5051425;28;20227;-82
2022/07/14 14:52:52;;;;;;;5.22;2.00;;;27.50;52.50;;;;;;5080368;28;20228;-81
2022/07/14 14:55:41;;;;;;;3.90;1.20;;;27.40;51.90;;;;;;5066416;28;20240;-82
2022/07/14 14:58:30;;;;;;;2.58;1.38;;;27.40;51.80;;;;;;5051692;28;20238;-81
2022/07/14 15:01:18;;;;;;;2.40;1.10;;;27.40;52.50;;;;;;5052008;28;20606;-81
2022/07/14 15:04:09;;;;;;;3.85;1.92;;;27.30;51.60;;;;;;5081397;28;20227;-82
2022/07/14 15:06:57;;;;;;;4.18;1.23;;;27.40;51.60;;;;;;5052081;28;20231;-81
2022/07/14 15:09:46;;;;;;;3.83;1.20;;;27.30;52.10;;;;;;5067445;28;20243;-81
2022/07/14 15:12:36;;;;;;;3.13;1.40;;;27.30;51.40;;;;;;5051891;28;20216;-82